<?xml version="1.0" encoding="UTF-8" standalone="no" ?>
<gpx xmlns="http://www.topografix.com/GPX/1/1" xmlns:xsi="http://www.w3.org/2001/XMLSchema-instance" xsi:schemaLocation="http://www.topografix.com/GPX/1/1 http://www.topografix.com/GPX/1/1/gpx.xsd" version="1.1" creator="VisuGPX - https://www.visugpx.com">
  <metadata>
    <name>ARQUES LA SEYNE SUR MER 1497 KM</name>
    <desc><![CDATA[Rando de Arques dans le Pas de Calais jusque La Seyne sur Mer dans le Var, 1497 km]]></desc>
  </metadata>
  <trk>
    <name><![CDATA[44 - SATILLIEU TOURNON SUR RHONE 28.8 KM]]></name>
    <extensions>
      <line xmlns="http://www.topografix.com/GPX/gpx_style/0/2">
        <color>000088</color>
        <width>4</width>
      </line>
    </extensions>
    <trkseg>
      <trkpt lat="45.15087" lon="4.61527">
        <ele>479</ele>
        <time>2021-11-28T11:13:10+01:00</time>
      </trkpt>
      <trkpt lat="45.15071" lon="4.615">
        <ele>480</ele>
        <time>2021-11-28T11:13:15+01:00</time>
      </trkpt>
      <trkpt lat="45.14996" lon="4.6157">
        <ele>480</ele>
        <time>2021-11-28T11:13:20+01:00</time>
      </trkpt>
      <trkpt lat="45.14958" lon="4.61575">
        <ele>485</ele>
        <time>2021-11-28T11:13:25+01:00</time>
      </trkpt>
      <trkpt lat="45.14927" lon="4.61533">
        <ele>488</ele>
        <time>2021-11-28T11:13:30+01:00</time>
      </trkpt>
      <trkpt lat="45.14865" lon="4.61405">
        <ele>494</ele>
        <time>2021-11-28T11:13:35+01:00</time>
      </trkpt>
      <trkpt lat="45.14863" lon="4.61457">
        <ele>496</ele>
        <time>2021-11-28T11:13:40+01:00</time>
      </trkpt>
      <trkpt lat="45.14838" lon="4.61492">
        <ele>503</ele>
        <time>2021-11-28T11:13:45+01:00</time>
      </trkpt>
      <trkpt lat="45.14813" lon="4.61462">
        <ele>505</ele>
        <time>2021-11-28T11:13:50+01:00</time>
      </trkpt>
      <trkpt lat="45.14731" lon="4.61495">
        <ele>517</ele>
        <time>2021-11-28T11:13:55+01:00</time>
      </trkpt>
      <trkpt lat="45.1465" lon="4.61546">
        <ele>537</ele>
        <time>2021-11-28T11:14:00+01:00</time>
      </trkpt>
      <trkpt lat="45.14571" lon="4.61538">
        <ele>553</ele>
        <time>2021-11-28T11:14:05+01:00</time>
      </trkpt>
      <trkpt lat="45.1455" lon="4.61564">
        <ele>561</ele>
        <time>2021-11-28T11:14:10+01:00</time>
      </trkpt>
      <trkpt lat="45.14582" lon="4.61634">
        <ele>568</ele>
        <time>2021-11-28T11:14:15+01:00</time>
      </trkpt>
      <trkpt lat="45.14543" lon="4.61634">
        <ele>574</ele>
        <time>2021-11-28T11:14:20+01:00</time>
      </trkpt>
      <trkpt lat="45.14504" lon="4.61665">
        <ele>586</ele>
        <time>2021-11-28T11:14:25+01:00</time>
      </trkpt>
      <trkpt lat="45.14437" lon="4.61664">
        <ele>601</ele>
        <time>2021-11-28T11:14:30+01:00</time>
      </trkpt>
      <trkpt lat="45.14371" lon="4.61683">
        <ele>623</ele>
        <time>2021-11-28T11:14:35+01:00</time>
      </trkpt>
      <trkpt lat="45.14389" lon="4.61535">
        <ele>615</ele>
        <time>2021-11-28T11:14:40+01:00</time>
      </trkpt>
      <trkpt lat="45.14375" lon="4.61553">
        <ele>621</ele>
        <time>2021-11-28T11:14:45+01:00</time>
      </trkpt>
      <trkpt lat="45.14309" lon="4.61651">
        <ele>643</ele>
        <time>2021-11-28T11:14:50+01:00</time>
      </trkpt>
      <trkpt lat="45.14338" lon="4.61533">
        <ele>637</ele>
        <time>2021-11-28T11:14:55+01:00</time>
      </trkpt>
      <trkpt lat="45.14321" lon="4.61475">
        <ele>637</ele>
        <time>2021-11-28T11:15:00+01:00</time>
      </trkpt>
      <trkpt lat="45.14278" lon="4.61446">
        <ele>640</ele>
        <time>2021-11-28T11:15:05+01:00</time>
      </trkpt>
      <trkpt lat="45.14212" lon="4.61444">
        <ele>654</ele>
        <time>2021-11-28T11:15:10+01:00</time>
      </trkpt>
      <trkpt lat="45.14147" lon="4.61305">
        <ele>656</ele>
        <time>2021-11-28T11:15:15+01:00</time>
      </trkpt>
      <trkpt lat="45.141" lon="4.61244">
        <ele>659</ele>
        <time>2021-11-28T11:15:20+01:00</time>
      </trkpt>
      <trkpt lat="45.14043" lon="4.61243">
        <ele>669</ele>
        <time>2021-11-28T11:15:25+01:00</time>
      </trkpt>
      <trkpt lat="45.13972" lon="4.61156">
        <ele>670</ele>
        <time>2021-11-28T11:15:30+01:00</time>
      </trkpt>
      <trkpt lat="45.13879" lon="4.61193">
        <ele>675</ele>
        <time>2021-11-28T11:15:35+01:00</time>
      </trkpt>
      <trkpt lat="45.13795" lon="4.61294">
        <ele>686</ele>
        <time>2021-11-28T11:15:40+01:00</time>
      </trkpt>
      <trkpt lat="45.13689" lon="4.61333">
        <ele>688</ele>
        <time>2021-11-28T11:15:45+01:00</time>
      </trkpt>
      <trkpt lat="45.13617" lon="4.61375">
        <ele>699</ele>
        <time>2021-11-28T11:15:50+01:00</time>
      </trkpt>
      <trkpt lat="45.13499" lon="4.61313">
        <ele>706</ele>
        <time>2021-11-28T11:15:55+01:00</time>
      </trkpt>
      <trkpt lat="45.13508" lon="4.61227">
        <ele>705</ele>
        <time>2021-11-28T11:16:00+01:00</time>
      </trkpt>
      <trkpt lat="45.13483" lon="4.61158">
        <ele>716</ele>
        <time>2021-11-28T11:16:05+01:00</time>
      </trkpt>
      <trkpt lat="45.13424" lon="4.61258">
        <ele>731</ele>
        <time>2021-11-28T11:16:10+01:00</time>
      </trkpt>
      <trkpt lat="45.13371" lon="4.61322">
        <ele>745</ele>
        <time>2021-11-28T11:16:15+01:00</time>
      </trkpt>
      <trkpt lat="45.13295" lon="4.61334">
        <ele>767</ele>
        <time>2021-11-28T11:16:20+01:00</time>
      </trkpt>
      <trkpt lat="45.13241" lon="4.6147">
        <ele>788</ele>
        <time>2021-11-28T11:16:25+01:00</time>
      </trkpt>
      <trkpt lat="45.13196" lon="4.61576">
        <ele>795</ele>
        <time>2021-11-28T11:16:30+01:00</time>
      </trkpt>
      <trkpt lat="45.132" lon="4.61619">
        <ele>791</ele>
        <time>2021-11-28T11:16:35+01:00</time>
      </trkpt>
      <trkpt lat="45.1314" lon="4.61546">
        <ele>793</ele>
        <time>2021-11-28T11:16:40+01:00</time>
      </trkpt>
      <trkpt lat="45.13083" lon="4.61521">
        <ele>788</ele>
        <time>2021-11-28T11:16:45+01:00</time>
      </trkpt>
      <trkpt lat="45.1298" lon="4.61304">
        <ele>798</ele>
        <time>2021-11-28T11:16:50+01:00</time>
      </trkpt>
      <trkpt lat="45.12953" lon="4.61294">
        <ele>798</ele>
        <time>2021-11-28T11:16:55+01:00</time>
      </trkpt>
      <trkpt lat="45.12915" lon="4.61587">
        <ele>779</ele>
        <time>2021-11-28T11:17:00+01:00</time>
      </trkpt>
      <trkpt lat="45.12927" lon="4.61721">
        <ele>771</ele>
        <time>2021-11-28T11:17:05+01:00</time>
      </trkpt>
      <trkpt lat="45.12976" lon="4.61873">
        <ele>762</ele>
        <time>2021-11-28T11:17:10+01:00</time>
      </trkpt>
      <trkpt lat="45.12936" lon="4.61855">
        <ele>765</ele>
        <time>2021-11-28T11:17:15+01:00</time>
      </trkpt>
      <trkpt lat="45.12849" lon="4.61982">
        <ele>766</ele>
        <time>2021-11-28T11:17:20+01:00</time>
      </trkpt>
      <trkpt lat="45.12808" lon="4.6213">
        <ele>770</ele>
        <time>2021-11-28T11:17:25+01:00</time>
      </trkpt>
      <trkpt lat="45.12777" lon="4.6215">
        <ele>779</ele>
        <time>2021-11-28T11:17:30+01:00</time>
      </trkpt>
      <trkpt lat="45.1274" lon="4.62227">
        <ele>782</ele>
        <time>2021-11-28T11:17:35+01:00</time>
      </trkpt>
      <trkpt lat="45.12655" lon="4.62353">
        <ele>782</ele>
        <time>2021-11-28T11:17:40+01:00</time>
      </trkpt>
      <trkpt lat="45.12628" lon="4.62436">
        <ele>776</ele>
        <time>2021-11-28T11:17:45+01:00</time>
      </trkpt>
      <trkpt lat="45.12561" lon="4.62572">
        <ele>771</ele>
        <time>2021-11-28T11:17:50+01:00</time>
      </trkpt>
      <trkpt lat="45.12491" lon="4.62633">
        <ele>757</ele>
        <time>2021-11-28T11:17:55+01:00</time>
      </trkpt>
      <trkpt lat="45.12338" lon="4.62662">
        <ele>732</ele>
        <time>2021-11-28T11:18:00+01:00</time>
      </trkpt>
      <trkpt lat="45.12343" lon="4.62732">
        <ele>721</ele>
        <time>2021-11-28T11:18:05+01:00</time>
      </trkpt>
      <trkpt lat="45.12364" lon="4.62792">
        <ele>711</ele>
        <time>2021-11-28T11:18:10+01:00</time>
      </trkpt>
      <trkpt lat="45.12353" lon="4.62812">
        <ele>711</ele>
        <time>2021-11-28T11:18:15+01:00</time>
      </trkpt>
      <trkpt lat="45.12332" lon="4.62821">
        <ele>714</ele>
        <time>2021-11-28T11:18:20+01:00</time>
      </trkpt>
      <trkpt lat="45.12306" lon="4.62865">
        <ele>710</ele>
        <time>2021-11-28T11:18:25+01:00</time>
      </trkpt>
      <trkpt lat="45.12249" lon="4.62872">
        <ele>716</ele>
        <time>2021-11-28T11:18:30+01:00</time>
      </trkpt>
      <trkpt lat="45.12115" lon="4.62831">
        <ele>743</ele>
        <time>2021-11-28T11:18:35+01:00</time>
      </trkpt>
      <trkpt lat="45.12103" lon="4.62861">
        <ele>743</ele>
        <time>2021-11-28T11:18:40+01:00</time>
      </trkpt>
      <trkpt lat="45.12113" lon="4.63016">
        <ele>735</ele>
        <time>2021-11-28T11:18:45+01:00</time>
      </trkpt>
      <trkpt lat="45.12083" lon="4.63144">
        <ele>735</ele>
        <time>2021-11-28T11:18:50+01:00</time>
      </trkpt>
      <trkpt lat="45.12034" lon="4.63269">
        <ele>726</ele>
        <time>2021-11-28T11:18:55+01:00</time>
      </trkpt>
      <trkpt lat="45.11961" lon="4.63387">
        <ele>716</ele>
        <time>2021-11-28T11:19:00+01:00</time>
      </trkpt>
      <trkpt lat="45.11917" lon="4.63392">
        <ele>717</ele>
        <time>2021-11-28T11:19:05+01:00</time>
      </trkpt>
      <trkpt lat="45.11774" lon="4.63518">
        <ele>689</ele>
        <time>2021-11-28T11:19:10+01:00</time>
      </trkpt>
      <trkpt lat="45.11698" lon="4.63486">
        <ele>682</ele>
        <time>2021-11-28T11:19:15+01:00</time>
      </trkpt>
      <trkpt lat="45.11668" lon="4.63385">
        <ele>692</ele>
        <time>2021-11-28T11:19:20+01:00</time>
      </trkpt>
      <trkpt lat="45.1154" lon="4.63399">
        <ele>679</ele>
        <time>2021-11-28T11:19:25+01:00</time>
      </trkpt>
      <trkpt lat="45.11485" lon="4.6341">
        <ele>684</ele>
        <time>2021-11-28T11:19:30+01:00</time>
      </trkpt>
      <trkpt lat="45.11427" lon="4.63396">
        <ele>694</ele>
        <time>2021-11-28T11:19:35+01:00</time>
      </trkpt>
      <trkpt lat="45.11368" lon="4.63412">
        <ele>710</ele>
        <time>2021-11-28T11:19:40+01:00</time>
      </trkpt>
      <trkpt lat="45.113" lon="4.63327">
        <ele>711</ele>
        <time>2021-11-28T11:19:45+01:00</time>
      </trkpt>
      <trkpt lat="45.1127" lon="4.63318">
        <ele>711</ele>
        <time>2021-11-28T11:19:50+01:00</time>
      </trkpt>
      <trkpt lat="45.11248" lon="4.63359">
        <ele>720</ele>
        <time>2021-11-28T11:19:55+01:00</time>
      </trkpt>
      <trkpt lat="45.11332" lon="4.63569">
        <ele>745</ele>
        <time>2021-11-28T11:20:00+01:00</time>
      </trkpt>
      <trkpt lat="45.11336" lon="4.63712">
        <ele>761</ele>
        <time>2021-11-28T11:20:05+01:00</time>
      </trkpt>
      <trkpt lat="45.11349" lon="4.63795">
        <ele>766</ele>
        <time>2021-11-28T11:20:10+01:00</time>
      </trkpt>
      <trkpt lat="45.11383" lon="4.63975">
        <ele>761</ele>
        <time>2021-11-28T11:20:15+01:00</time>
      </trkpt>
      <trkpt lat="45.11288" lon="4.64132">
        <ele>776</ele>
        <time>2021-11-28T11:20:20+01:00</time>
      </trkpt>
      <trkpt lat="45.11298" lon="4.64215">
        <ele>775</ele>
        <time>2021-11-28T11:20:25+01:00</time>
      </trkpt>
      <trkpt lat="45.11331" lon="4.64271">
        <ele>772</ele>
        <time>2021-11-28T11:20:30+01:00</time>
      </trkpt>
      <trkpt lat="45.11392" lon="4.64321">
        <ele>765</ele>
        <time>2021-11-28T11:20:35+01:00</time>
      </trkpt>
      <trkpt lat="45.11405" lon="4.64402">
        <ele>779</ele>
        <time>2021-11-28T11:20:40+01:00</time>
      </trkpt>
      <trkpt lat="45.11452" lon="4.64432">
        <ele>775</ele>
        <time>2021-11-28T11:20:45+01:00</time>
      </trkpt>
      <trkpt lat="45.11447" lon="4.64483">
        <ele>780</ele>
        <time>2021-11-28T11:20:50+01:00</time>
      </trkpt>
      <trkpt lat="45.11385" lon="4.6457">
        <ele>786</ele>
        <time>2021-11-28T11:20:55+01:00</time>
      </trkpt>
      <trkpt lat="45.11352" lon="4.64573">
        <ele>787</ele>
        <time>2021-11-28T11:21:00+01:00</time>
      </trkpt>
      <trkpt lat="45.11329" lon="4.6466">
        <ele>789</ele>
        <time>2021-11-28T11:21:05+01:00</time>
      </trkpt>
      <trkpt lat="45.11374" lon="4.64811">
        <ele>784</ele>
        <time>2021-11-28T11:21:10+01:00</time>
      </trkpt>
      <trkpt lat="45.11399" lon="4.64917">
        <ele>784</ele>
        <time>2021-11-28T11:21:15+01:00</time>
      </trkpt>
      <trkpt lat="45.11393" lon="4.65023">
        <ele>786</ele>
        <time>2021-11-28T11:21:20+01:00</time>
      </trkpt>
      <trkpt lat="45.11339" lon="4.65177">
        <ele>784</ele>
        <time>2021-11-28T11:21:25+01:00</time>
      </trkpt>
      <trkpt lat="45.11302" lon="4.6523">
        <ele>784</ele>
        <time>2021-11-28T11:21:30+01:00</time>
      </trkpt>
      <trkpt lat="45.1126" lon="4.65281">
        <ele>786</ele>
        <time>2021-11-28T11:21:35+01:00</time>
      </trkpt>
      <trkpt lat="45.11276" lon="4.65313">
        <ele>786</ele>
        <time>2021-11-28T11:21:40+01:00</time>
      </trkpt>
      <trkpt lat="45.11227" lon="4.65389">
        <ele>786</ele>
        <time>2021-11-28T11:21:45+01:00</time>
      </trkpt>
      <trkpt lat="45.11176" lon="4.6545">
        <ele>785</ele>
        <time>2021-11-28T11:21:50+01:00</time>
      </trkpt>
      <trkpt lat="45.11133" lon="4.65535">
        <ele>787</ele>
        <time>2021-11-28T11:21:55+01:00</time>
      </trkpt>
      <trkpt lat="45.11072" lon="4.65657">
        <ele>787</ele>
        <time>2021-11-28T11:22:00+01:00</time>
      </trkpt>
      <trkpt lat="45.11053" lon="4.65775">
        <ele>789</ele>
        <time>2021-11-28T11:22:05+01:00</time>
      </trkpt>
      <trkpt lat="45.10998" lon="4.65918">
        <ele>780</ele>
        <time>2021-11-28T11:22:10+01:00</time>
      </trkpt>
      <trkpt lat="45.10953" lon="4.66042">
        <ele>784</ele>
        <time>2021-11-28T11:22:15+01:00</time>
      </trkpt>
      <trkpt lat="45.10862" lon="4.66061">
        <ele>781</ele>
        <time>2021-11-28T11:22:20+01:00</time>
      </trkpt>
      <trkpt lat="45.10733" lon="4.66049">
        <ele>772</ele>
        <time>2021-11-28T11:22:25+01:00</time>
      </trkpt>
      <trkpt lat="45.10687" lon="4.66061">
        <ele>770</ele>
        <time>2021-11-28T11:22:30+01:00</time>
      </trkpt>
      <trkpt lat="45.10566" lon="4.66193">
        <ele>760</ele>
        <time>2021-11-28T11:22:35+01:00</time>
      </trkpt>
      <trkpt lat="45.1052" lon="4.66269">
        <ele>751</ele>
        <time>2021-11-28T11:22:40+01:00</time>
      </trkpt>
      <trkpt lat="45.10444" lon="4.66441">
        <ele>737</ele>
        <time>2021-11-28T11:22:45+01:00</time>
      </trkpt>
      <trkpt lat="45.10406" lon="4.66488">
        <ele>729</ele>
        <time>2021-11-28T11:22:50+01:00</time>
      </trkpt>
      <trkpt lat="45.10378" lon="4.66501">
        <ele>722</ele>
        <time>2021-11-28T11:22:55+01:00</time>
      </trkpt>
      <trkpt lat="45.10362" lon="4.66448">
        <ele>712</ele>
        <time>2021-11-28T11:23:00+01:00</time>
      </trkpt>
      <trkpt lat="45.10378" lon="4.66373">
        <ele>710</ele>
        <time>2021-11-28T11:23:05+01:00</time>
      </trkpt>
      <trkpt lat="45.10352" lon="4.66259">
        <ele>697</ele>
        <time>2021-11-28T11:23:10+01:00</time>
      </trkpt>
      <trkpt lat="45.10345" lon="4.66352">
        <ele>700</ele>
        <time>2021-11-28T11:23:15+01:00</time>
      </trkpt>
      <trkpt lat="45.10298" lon="4.66435">
        <ele>691</ele>
        <time>2021-11-28T11:23:20+01:00</time>
      </trkpt>
      <trkpt lat="45.10263" lon="4.6655">
        <ele>684</ele>
        <time>2021-11-28T11:23:25+01:00</time>
      </trkpt>
      <trkpt lat="45.10191" lon="4.66783">
        <ele>654</ele>
        <time>2021-11-28T11:23:30+01:00</time>
      </trkpt>
      <trkpt lat="45.10227" lon="4.66968">
        <ele>632</ele>
        <time>2021-11-28T11:23:35+01:00</time>
      </trkpt>
      <trkpt lat="45.10242" lon="4.67032">
        <ele>631</ele>
        <time>2021-11-28T11:23:40+01:00</time>
      </trkpt>
      <trkpt lat="45.1022" lon="4.67177">
        <ele>628</ele>
        <time>2021-11-28T11:23:45+01:00</time>
      </trkpt>
      <trkpt lat="45.10197" lon="4.67187">
        <ele>623</ele>
        <time>2021-11-28T11:23:50+01:00</time>
      </trkpt>
      <trkpt lat="45.10145" lon="4.67219">
        <ele>614</ele>
        <time>2021-11-28T11:23:55+01:00</time>
      </trkpt>
      <trkpt lat="45.10107" lon="4.67289">
        <ele>612</ele>
        <time>2021-11-28T11:24:00+01:00</time>
      </trkpt>
      <trkpt lat="45.10091" lon="4.67348">
        <ele>612</ele>
        <time>2021-11-28T11:24:05+01:00</time>
      </trkpt>
      <trkpt lat="45.10084" lon="4.67402">
        <ele>612</ele>
        <time>2021-11-28T11:24:10+01:00</time>
      </trkpt>
      <trkpt lat="45.10075" lon="4.67438">
        <ele>610</ele>
        <time>2021-11-28T11:24:15+01:00</time>
      </trkpt>
      <trkpt lat="45.10053" lon="4.67441">
        <ele>607</ele>
        <time>2021-11-28T11:24:20+01:00</time>
      </trkpt>
      <trkpt lat="45.10045" lon="4.67494">
        <ele>604</ele>
        <time>2021-11-28T11:24:25+01:00</time>
      </trkpt>
      <trkpt lat="45.10053" lon="4.67568">
        <ele>600</ele>
        <time>2021-11-28T11:24:30+01:00</time>
      </trkpt>
      <trkpt lat="45.10044" lon="4.67688">
        <ele>596</ele>
        <time>2021-11-28T11:24:35+01:00</time>
      </trkpt>
      <trkpt lat="45.10028" lon="4.67969">
        <ele>596</ele>
        <time>2021-11-28T11:24:40+01:00</time>
      </trkpt>
      <trkpt lat="45.10094" lon="4.68029">
        <ele>589</ele>
        <time>2021-11-28T11:24:45+01:00</time>
      </trkpt>
      <trkpt lat="45.1013" lon="4.68121">
        <ele>575</ele>
        <time>2021-11-28T11:24:50+01:00</time>
      </trkpt>
      <trkpt lat="45.10095" lon="4.6816">
        <ele>578</ele>
        <time>2021-11-28T11:24:55+01:00</time>
      </trkpt>
      <trkpt lat="45.1008" lon="4.68209">
        <ele>578</ele>
        <time>2021-11-28T11:25:00+01:00</time>
      </trkpt>
      <trkpt lat="45.1006" lon="4.68273">
        <ele>581</ele>
        <time>2021-11-28T11:25:05+01:00</time>
      </trkpt>
      <trkpt lat="45.10065" lon="4.68334">
        <ele>579</ele>
        <time>2021-11-28T11:25:10+01:00</time>
      </trkpt>
      <trkpt lat="45.10095" lon="4.68463">
        <ele>574</ele>
        <time>2021-11-28T11:25:15+01:00</time>
      </trkpt>
      <trkpt lat="45.10167" lon="4.68583">
        <ele>561</ele>
        <time>2021-11-28T11:25:20+01:00</time>
      </trkpt>
      <trkpt lat="45.10212" lon="4.68859">
        <ele>532</ele>
        <time>2021-11-28T11:25:25+01:00</time>
      </trkpt>
      <trkpt lat="45.10208" lon="4.69047">
        <ele>522</ele>
        <time>2021-11-28T11:25:30+01:00</time>
      </trkpt>
      <trkpt lat="45.10149" lon="4.69009">
        <ele>533</ele>
        <time>2021-11-28T11:25:35+01:00</time>
      </trkpt>
      <trkpt lat="45.10105" lon="4.69088">
        <ele>540</ele>
        <time>2021-11-28T11:25:40+01:00</time>
      </trkpt>
      <trkpt lat="45.10078" lon="4.69104">
        <ele>545</ele>
        <time>2021-11-28T11:25:45+01:00</time>
      </trkpt>
      <trkpt lat="45.09985" lon="4.69293">
        <ele>535</ele>
        <time>2021-11-28T11:25:50+01:00</time>
      </trkpt>
      <trkpt lat="45.10014" lon="4.6943">
        <ele>525</ele>
        <time>2021-11-28T11:25:55+01:00</time>
      </trkpt>
      <trkpt lat="45.09868" lon="4.69579">
        <ele>520</ele>
        <time>2021-11-28T11:26:00+01:00</time>
      </trkpt>
      <trkpt lat="45.09798" lon="4.69626">
        <ele>521</ele>
        <time>2021-11-28T11:26:05+01:00</time>
      </trkpt>
      <trkpt lat="45.09754" lon="4.69686">
        <ele>521</ele>
        <time>2021-11-28T11:26:10+01:00</time>
      </trkpt>
      <trkpt lat="45.09715" lon="4.69702">
        <ele>520</ele>
        <time>2021-11-28T11:26:15+01:00</time>
      </trkpt>
      <trkpt lat="45.09739" lon="4.69739">
        <ele>519</ele>
        <time>2021-11-28T11:26:20+01:00</time>
      </trkpt>
      <trkpt lat="45.09792" lon="4.6976">
        <ele>515</ele>
        <time>2021-11-28T11:26:25+01:00</time>
      </trkpt>
      <trkpt lat="45.0979" lon="4.69937">
        <ele>502</ele>
        <time>2021-11-28T11:26:30+01:00</time>
      </trkpt>
      <trkpt lat="45.09836" lon="4.70364">
        <ele>475</ele>
        <time>2021-11-28T11:26:35+01:00</time>
      </trkpt>
      <trkpt lat="45.09866" lon="4.70537">
        <ele>467</ele>
        <time>2021-11-28T11:26:40+01:00</time>
      </trkpt>
      <trkpt lat="45.09914" lon="4.70659">
        <ele>465</ele>
        <time>2021-11-28T11:26:45+01:00</time>
      </trkpt>
      <trkpt lat="45.09897" lon="4.70818">
        <ele>462</ele>
        <time>2021-11-28T11:26:50+01:00</time>
      </trkpt>
      <trkpt lat="45.09882" lon="4.70945">
        <ele>456</ele>
        <time>2021-11-28T11:26:55+01:00</time>
      </trkpt>
      <trkpt lat="45.09897" lon="4.7101">
        <ele>453</ele>
        <time>2021-11-28T11:27:00+01:00</time>
      </trkpt>
      <trkpt lat="45.09927" lon="4.71065">
        <ele>455</ele>
        <time>2021-11-28T11:27:05+01:00</time>
      </trkpt>
      <trkpt lat="45.09957" lon="4.71035">
        <ele>456</ele>
        <time>2021-11-28T11:27:10+01:00</time>
      </trkpt>
      <trkpt lat="45.1002" lon="4.71086">
        <ele>464</ele>
        <time>2021-11-28T11:27:15+01:00</time>
      </trkpt>
      <trkpt lat="45.1004" lon="4.71141">
        <ele>475</ele>
        <time>2021-11-28T11:27:20+01:00</time>
      </trkpt>
      <trkpt lat="45.10008" lon="4.71199">
        <ele>485</ele>
        <time>2021-11-28T11:27:25+01:00</time>
      </trkpt>
      <trkpt lat="45.09952" lon="4.71264">
        <ele>486</ele>
        <time>2021-11-28T11:27:30+01:00</time>
      </trkpt>
      <trkpt lat="45.09945" lon="4.71328">
        <ele>490</ele>
        <time>2021-11-28T11:27:35+01:00</time>
      </trkpt>
      <trkpt lat="45.09914" lon="4.71439">
        <ele>483</ele>
        <time>2021-11-28T11:27:40+01:00</time>
      </trkpt>
      <trkpt lat="45.09935" lon="4.71508">
        <ele>486</ele>
        <time>2021-11-28T11:27:45+01:00</time>
      </trkpt>
      <trkpt lat="45.09943" lon="4.71607">
        <ele>490</ele>
        <time>2021-11-28T11:27:50+01:00</time>
      </trkpt>
      <trkpt lat="45.10002" lon="4.7187">
        <ele>509</ele>
        <time>2021-11-28T11:27:55+01:00</time>
      </trkpt>
      <trkpt lat="45.10021" lon="4.72034">
        <ele>508</ele>
        <time>2021-11-28T11:28:00+01:00</time>
      </trkpt>
      <trkpt lat="45.10056" lon="4.7232">
        <ele>495</ele>
        <time>2021-11-28T11:28:05+01:00</time>
      </trkpt>
      <trkpt lat="45.10124" lon="4.72537">
        <ele>487</ele>
        <time>2021-11-28T11:28:10+01:00</time>
      </trkpt>
      <trkpt lat="45.10134" lon="4.72629">
        <ele>483</ele>
        <time>2021-11-28T11:28:15+01:00</time>
      </trkpt>
      <trkpt lat="45.10302" lon="4.72885">
        <ele>468</ele>
        <time>2021-11-28T11:28:20+01:00</time>
      </trkpt>
      <trkpt lat="45.10408" lon="4.73149">
        <ele>459</ele>
        <time>2021-11-28T11:28:25+01:00</time>
      </trkpt>
      <trkpt lat="45.10339" lon="4.73227">
        <ele>460</ele>
        <time>2021-11-28T11:28:30+01:00</time>
      </trkpt>
      <trkpt lat="45.10227" lon="4.73345">
        <ele>466</ele>
        <time>2021-11-28T11:28:35+01:00</time>
      </trkpt>
      <trkpt lat="45.10074" lon="4.73428">
        <ele>462</ele>
        <time>2021-11-28T11:28:40+01:00</time>
      </trkpt>
      <trkpt lat="45.0994" lon="4.73522">
        <ele>461</ele>
        <time>2021-11-28T11:28:45+01:00</time>
      </trkpt>
      <trkpt lat="45.09874" lon="4.73587">
        <ele>462</ele>
        <time>2021-11-28T11:28:50+01:00</time>
      </trkpt>
      <trkpt lat="45.09749" lon="4.73698">
        <ele>461</ele>
        <time>2021-11-28T11:28:55+01:00</time>
      </trkpt>
      <trkpt lat="45.09645" lon="4.7373">
        <ele>460</ele>
        <time>2021-11-28T11:29:00+01:00</time>
      </trkpt>
      <trkpt lat="45.09603" lon="4.73732">
        <ele>460</ele>
        <time>2021-11-28T11:29:05+01:00</time>
      </trkpt>
      <trkpt lat="45.09509" lon="4.73869">
        <ele>457</ele>
        <time>2021-11-28T11:29:10+01:00</time>
      </trkpt>
      <trkpt lat="45.09533" lon="4.74083">
        <ele>451</ele>
        <time>2021-11-28T11:29:15+01:00</time>
      </trkpt>
      <trkpt lat="45.09548" lon="4.74342">
        <ele>446</ele>
        <time>2021-11-28T11:29:20+01:00</time>
      </trkpt>
      <trkpt lat="45.09529" lon="4.74462">
        <ele>444</ele>
        <time>2021-11-28T11:29:25+01:00</time>
      </trkpt>
      <trkpt lat="45.09468" lon="4.74627">
        <ele>444</ele>
        <time>2021-11-28T11:29:30+01:00</time>
      </trkpt>
      <trkpt lat="45.09416" lon="4.74745">
        <ele>441</ele>
        <time>2021-11-28T11:29:35+01:00</time>
      </trkpt>
      <trkpt lat="45.09423" lon="4.75131">
        <ele>420</ele>
        <time>2021-11-28T11:29:40+01:00</time>
      </trkpt>
      <trkpt lat="45.09436" lon="4.75234">
        <ele>413</ele>
        <time>2021-11-28T11:29:45+01:00</time>
      </trkpt>
      <trkpt lat="45.09494" lon="4.75283">
        <ele>405</ele>
        <time>2021-11-28T11:29:50+01:00</time>
      </trkpt>
      <trkpt lat="45.09506" lon="4.7532">
        <ele>401</ele>
        <time>2021-11-28T11:29:55+01:00</time>
      </trkpt>
      <trkpt lat="45.09411" lon="4.75391">
        <ele>391</ele>
        <time>2021-11-28T11:30:00+01:00</time>
      </trkpt>
      <trkpt lat="45.09426" lon="4.75437">
        <ele>383</ele>
        <time>2021-11-28T11:30:05+01:00</time>
      </trkpt>
      <trkpt lat="45.09376" lon="4.75518">
        <ele>368</ele>
        <time>2021-11-28T11:30:10+01:00</time>
      </trkpt>
      <trkpt lat="45.09336" lon="4.755">
        <ele>365</ele>
        <time>2021-11-28T11:30:15+01:00</time>
      </trkpt>
      <trkpt lat="45.09326" lon="4.75537">
        <ele>364</ele>
        <time>2021-11-28T11:30:20+01:00</time>
      </trkpt>
      <trkpt lat="45.0935" lon="4.75557">
        <ele>365</ele>
        <time>2021-11-28T11:30:25+01:00</time>
      </trkpt>
      <trkpt lat="45.094" lon="4.75567">
        <ele>367</ele>
        <time>2021-11-28T11:30:30+01:00</time>
      </trkpt>
      <trkpt lat="45.09447" lon="4.75585">
        <ele>368</ele>
        <time>2021-11-28T11:30:35+01:00</time>
      </trkpt>
      <trkpt lat="45.09395" lon="4.75641">
        <ele>379</ele>
        <time>2021-11-28T11:30:40+01:00</time>
      </trkpt>
      <trkpt lat="45.09309" lon="4.75693">
        <ele>392</ele>
        <time>2021-11-28T11:30:45+01:00</time>
      </trkpt>
      <trkpt lat="45.09269" lon="4.75754">
        <ele>407</ele>
        <time>2021-11-28T11:30:50+01:00</time>
      </trkpt>
      <trkpt lat="45.09134" lon="4.75867">
        <ele>424</ele>
        <time>2021-11-28T11:30:55+01:00</time>
      </trkpt>
      <trkpt lat="45.09172" lon="4.75878">
        <ele>424</ele>
        <time>2021-11-28T11:31:00+01:00</time>
      </trkpt>
      <trkpt lat="45.0921" lon="4.7597">
        <ele>423</ele>
        <time>2021-11-28T11:31:05+01:00</time>
      </trkpt>
      <trkpt lat="45.09159" lon="4.7616">
        <ele>425</ele>
        <time>2021-11-28T11:31:10+01:00</time>
      </trkpt>
      <trkpt lat="45.09126" lon="4.76328">
        <ele>424</ele>
        <time>2021-11-28T11:31:15+01:00</time>
      </trkpt>
      <trkpt lat="45.09078" lon="4.7642">
        <ele>420</ele>
        <time>2021-11-28T11:31:20+01:00</time>
      </trkpt>
      <trkpt lat="45.09061" lon="4.76476">
        <ele>419</ele>
        <time>2021-11-28T11:31:25+01:00</time>
      </trkpt>
      <trkpt lat="45.09068" lon="4.76706">
        <ele>411</ele>
        <time>2021-11-28T11:31:30+01:00</time>
      </trkpt>
      <trkpt lat="45.09082" lon="4.77011">
        <ele>397</ele>
        <time>2021-11-28T11:31:35+01:00</time>
      </trkpt>
      <trkpt lat="45.09042" lon="4.77112">
        <ele>390</ele>
        <time>2021-11-28T11:31:40+01:00</time>
      </trkpt>
      <trkpt lat="45.09031" lon="4.77193">
        <ele>389</ele>
        <time>2021-11-28T11:31:45+01:00</time>
      </trkpt>
      <trkpt lat="45.08984" lon="4.77233">
        <ele>385</ele>
        <time>2021-11-28T11:31:50+01:00</time>
      </trkpt>
      <trkpt lat="45.08751" lon="4.77145">
        <ele>390</ele>
        <time>2021-11-28T11:31:55+01:00</time>
      </trkpt>
      <trkpt lat="45.08532" lon="4.77237">
        <ele>402</ele>
        <time>2021-11-28T11:32:00+01:00</time>
      </trkpt>
      <trkpt lat="45.08448" lon="4.77262">
        <ele>405</ele>
        <time>2021-11-28T11:32:05+01:00</time>
      </trkpt>
      <trkpt lat="45.08207" lon="4.77218">
        <ele>404</ele>
        <time>2021-11-28T11:32:10+01:00</time>
      </trkpt>
      <trkpt lat="45.08078" lon="4.77191">
        <ele>406</ele>
        <time>2021-11-28T11:32:15+01:00</time>
      </trkpt>
      <trkpt lat="45.07909" lon="4.77069">
        <ele>410</ele>
        <time>2021-11-28T11:32:20+01:00</time>
      </trkpt>
      <trkpt lat="45.07609" lon="4.77092">
        <ele>393</ele>
        <time>2021-11-28T11:32:25+01:00</time>
      </trkpt>
      <trkpt lat="45.07463" lon="4.77128">
        <ele>376</ele>
        <time>2021-11-28T11:32:30+01:00</time>
      </trkpt>
      <trkpt lat="45.07355" lon="4.77227">
        <ele>374</ele>
        <time>2021-11-28T11:32:35+01:00</time>
      </trkpt>
      <trkpt lat="45.07183" lon="4.77281">
        <ele>372</ele>
        <time>2021-11-28T11:32:40+01:00</time>
      </trkpt>
      <trkpt lat="45.07001" lon="4.77263">
        <ele>373</ele>
        <time>2021-11-28T11:32:45+01:00</time>
      </trkpt>
      <trkpt lat="45.06858" lon="4.77204">
        <ele>371</ele>
        <time>2021-11-28T11:32:50+01:00</time>
      </trkpt>
      <trkpt lat="45.06724" lon="4.77227">
        <ele>367</ele>
        <time>2021-11-28T11:32:55+01:00</time>
      </trkpt>
      <trkpt lat="45.06437" lon="4.7725">
        <ele>362</ele>
        <time>2021-11-28T11:33:00+01:00</time>
      </trkpt>
      <trkpt lat="45.06469" lon="4.77448">
        <ele>340</ele>
        <time>2021-11-28T11:33:05+01:00</time>
      </trkpt>
      <trkpt lat="45.06443" lon="4.77538">
        <ele>330</ele>
        <time>2021-11-28T11:33:10+01:00</time>
      </trkpt>
      <trkpt lat="45.06475" lon="4.7761">
        <ele>318</ele>
        <time>2021-11-28T11:33:15+01:00</time>
      </trkpt>
      <trkpt lat="45.06517" lon="4.7762">
        <ele>309</ele>
        <time>2021-11-28T11:33:20+01:00</time>
      </trkpt>
      <trkpt lat="45.0652" lon="4.7767">
        <ele>301</ele>
        <time>2021-11-28T11:33:25+01:00</time>
      </trkpt>
      <trkpt lat="45.06402" lon="4.77759">
        <ele>285</ele>
        <time>2021-11-28T11:33:30+01:00</time>
      </trkpt>
      <trkpt lat="45.06311" lon="4.77806">
        <ele>272</ele>
        <time>2021-11-28T11:33:35+01:00</time>
      </trkpt>
      <trkpt lat="45.06214" lon="4.77899">
        <ele>235</ele>
        <time>2021-11-28T11:33:40+01:00</time>
      </trkpt>
      <trkpt lat="45.06174" lon="4.77878">
        <ele>231</ele>
        <time>2021-11-28T11:33:45+01:00</time>
      </trkpt>
      <trkpt lat="45.06177" lon="4.77929">
        <ele>224</ele>
        <time>2021-11-28T11:33:50+01:00</time>
      </trkpt>
      <trkpt lat="45.06224" lon="4.77959">
        <ele>220</ele>
        <time>2021-11-28T11:33:55+01:00</time>
      </trkpt>
      <trkpt lat="45.06282" lon="4.77943">
        <ele>218</ele>
        <time>2021-11-28T11:34:00+01:00</time>
      </trkpt>
      <trkpt lat="45.06346" lon="4.77899">
        <ele>225</ele>
        <time>2021-11-28T11:34:05+01:00</time>
      </trkpt>
      <trkpt lat="45.06374" lon="4.77907">
        <ele>215</ele>
        <time>2021-11-28T11:34:10+01:00</time>
      </trkpt>
      <trkpt lat="45.0644" lon="4.77881">
        <ele>217</ele>
        <time>2021-11-28T11:34:15+01:00</time>
      </trkpt>
      <trkpt lat="45.0655" lon="4.7791">
        <ele>187</ele>
        <time>2021-11-28T11:34:20+01:00</time>
      </trkpt>
      <trkpt lat="45.06594" lon="4.77897">
        <ele>190</ele>
        <time>2021-11-28T11:34:25+01:00</time>
      </trkpt>
      <trkpt lat="45.06629" lon="4.77919">
        <ele>178</ele>
        <time>2021-11-28T11:34:30+01:00</time>
      </trkpt>
      <trkpt lat="45.06679" lon="4.77889">
        <ele>190</ele>
        <time>2021-11-28T11:34:35+01:00</time>
      </trkpt>
      <trkpt lat="45.06701" lon="4.78016">
        <ele>161</ele>
        <time>2021-11-28T11:34:40+01:00</time>
      </trkpt>
      <trkpt lat="45.06748" lon="4.78067">
        <ele>165</ele>
        <time>2021-11-28T11:34:45+01:00</time>
      </trkpt>
      <trkpt lat="45.06721" lon="4.78098">
        <ele>153</ele>
        <time>2021-11-28T11:34:50+01:00</time>
      </trkpt>
      <trkpt lat="45.06701" lon="4.78094">
        <ele>146</ele>
        <time>2021-11-28T11:34:55+01:00</time>
      </trkpt>
      <trkpt lat="45.06602" lon="4.78166">
        <ele>152</ele>
        <time>2021-11-28T11:35:00+01:00</time>
      </trkpt>
      <trkpt lat="45.06625" lon="4.78228">
        <ele>154</ele>
        <time>2021-11-28T11:35:05+01:00</time>
      </trkpt>
      <trkpt lat="45.06624" lon="4.78372">
        <ele>159</ele>
        <time>2021-11-28T11:35:10+01:00</time>
      </trkpt>
      <trkpt lat="45.06632" lon="4.78497">
        <ele>156</ele>
        <time>2021-11-28T11:35:15+01:00</time>
      </trkpt>
      <trkpt lat="45.0661" lon="4.78615">
        <ele>150</ele>
        <time>2021-11-28T11:35:20+01:00</time>
      </trkpt>
      <trkpt lat="45.06546" lon="4.78743">
        <ele>154</ele>
        <time>2021-11-28T11:35:25+01:00</time>
      </trkpt>
      <trkpt lat="45.06525" lon="4.78788">
        <ele>156</ele>
        <time>2021-11-28T11:35:30+01:00</time>
      </trkpt>
    </trkseg>
  </trk>
</gpx>